City Of Cleveland — WDC2358 — position and weather

sailwx.info

Track history (hours):
 
Tides and Currents Weather Stations Pressure Air Temp Water Temp Dewpoint Dewpoint Depression Visibility Wind Speed Wind Dir Waves Ship Positions

City Of Cleveland

Owner: JANTRAN, INC., ROSEDALE, MS. More information available from US FCC via Universal Licensing System and Coast Guard Vessel Documentation Center.

Last reported at 2018-Apr-18 14:24 UTC. Time now 2018-Apr-20 11:01 UTC.
Position N 32°03' W 091°03'.

Length 42 m; draft 12.5 m.

Type: Towing. MMSI: 366991810.

Date/timePositionNaut miles runAvg speedWind from/ knotsBaromVisibWave heightAir tempDewpointWater temp
2018-Apr-18 14:24N 32°03' W 091°03'3 8.6
2018-Apr-18 14:00N 32°06' W 091°06'3 5.8
2018-Apr-18 13:30N 32°07' W 091°03'4 8.1
2018-Apr-18 13:00N 32°11' W 090°60'5 9.5
2018-Apr-18 12:30N 32°15' W 090°58'510.0
2018-Apr-18 12:00N 32°19' W 090°54'3 6.9
2018-Apr-18 11:30N 32°21' W 090°57'0 1.0
2018-Apr-18 11:00N 32°21' W 090°58'0 0.0
2018-Apr-18 10:30N 32°21' W 090°58'0 0.0
2018-Apr-18 10:00N 32°21' W 090°58'0 0.0
2018-Apr-18 09:30N 32°21' W 090°58'0 0.0
2018-Apr-18 09:00N 32°21' W 090°58'0 0.0
2018-Apr-18 08:30N 32°21' W 090°58'0 0.0
2018-Apr-18 08:00N 32°21' W 090°58'0 0.0
2018-Apr-18 07:30N 32°21' W 090°58'0 0.0
2018-Apr-18 07:00N 32°21' W 090°58'0 0.0
2018-Apr-18 06:30N 32°21' W 090°58'0 0.0
2018-Apr-18 06:00N 32°21' W 090°58'0 0.0
2018-Apr-18 05:30N 32°21' W 090°58'0 0.0
2018-Apr-18 05:00N 32°21' W 090°58'0 0.0
2018-Apr-18 04:30N 32°21' W 090°58'0 0.0
2018-Apr-18 04:00N 32°21' W 090°58'0 0.0
2018-Apr-18 03:30N 32°21' W 090°58'0 0.0
2018-Apr-18 03:00N 32°21' W 090°58'0 0.0
2018-Apr-18 02:30N 32°21' W 090°58'1 2.9
2018-Apr-18 02:00N 32°21' W 090°60'4 8.5
2018-Apr-18 01:30N 32°25' W 091°01'510.2
2018-Apr-18 01:00N 32°28' W 091°06'5 9.2
2018-Apr-18 00:29N 32°33' W 091°06'5 9.4
2018-Apr-18 00:00N 32°37' W 091°09'  
2018-Apr-09 01:27N 32°37' W 091°09'2 4.1
2018-Apr-09 00:59N 32°35' W 091°07'2 3.1
2018-Apr-09 00:20N 32°34' W 091°06'1 4.1
2018-Apr-08 23:59N 32°32' W 091°06'2 4.7
2018-Apr-08 23:31N 32°30' W 091°07'2 3.5
2018-Apr-08 23:00N 32°28' W 091°06'2 4.3
2018-Apr-08 22:31N 32°27' W 091°04'2 3.9
2018-Apr-08 22:01N 32°26' W 091°02'2 4.0
2018-Apr-08 21:31N 32°25' W 091°01'2 4.2
2018-Apr-08 21:00N 32°23' W 091°00'2 4.0
2018-Apr-08 20:31N 32°21' W 090°59'2 4.2
2018-Apr-08 20:01N 32°21' W 090°57'2 4.0
2018-Apr-08 19:30N 32°20' W 090°54'2 3.6
2018-Apr-08 19:01N 32°18' W 090°55'2 4.6
2018-Apr-08 18:30N 32°17' W 090°57'2 4.5
2018-Apr-08 18:01N 32°14' W 090°58'3 5.0
2018-Apr-08 17:31N 32°12' W 090°59'2 4.2
2018-Apr-08 17:00N 32°10' W 090°60'2 4.2
2018-Apr-08 16:31N 32°08' W 091°01'2 4.1
2018-Apr-08 16:00N 32°08' W 091°03'1 2.8
2018-Apr-08 15:31N 32°08' W 091°05'4 3.7
2018-Apr-08 14:26N 32°04' W 091°03'  
Track history (hours):
 
Tides and Currents Weather Stations Pressure Air Temp Water Temp Dewpoint Dewpoint Depression Visibility Wind Speed Wind Dir Waves Ship Positions

City Of Cleveland

Owner: JANTRAN, INC., ROSEDALE, MS. More information available from US FCC via Universal Licensing System and Coast Guard Vessel Documentation Center.

Last reported at 2018-Apr-18 14:24 UTC. Time now 2018-Apr-20 11:01 UTC.
Position N 32°03' W 091°03'.

Length 42 m; draft 12.5 m.

Type: Towing. MMSI: 366991810.

Date/timePositionNaut miles runAvg speedWind from/ knotsBaromVisibWave heightAir tempDewpointWater temp
2018-Apr-18 14:24N 32°03' W 091°03'3 8.6
2018-Apr-18 14:00N 32°06' W 091°06'3 5.8
2018-Apr-18 13:30N 32°07' W 091°03'4 8.1
2018-Apr-18 13:00N 32°11' W 090°60'5 9.5
2018-Apr-18 12:30N 32°15' W 090°58'510.0
2018-Apr-18 12:00N 32°19' W 090°54'3 6.9
2018-Apr-18 11:30N 32°21' W 090°57'0 1.0
2018-Apr-18 11:00N 32°21' W 090°58'0 0.0
2018-Apr-18 10:30N 32°21' W 090°58'0 0.0
2018-Apr-18 10:00N 32°21' W 090°58'0 0.0
2018-Apr-18 09:30N 32°21' W 090°58'0 0.0
2018-Apr-18 09:00N 32°21' W 090°58'0 0.0
2018-Apr-18 08:30N 32°21' W 090°58'0 0.0
2018-Apr-18 08:00N 32°21' W 090°58'0 0.0
2018-Apr-18 07:30N 32°21' W 090°58'0 0.0
2018-Apr-18 07:00N 32°21' W 090°58'0 0.0
2018-Apr-18 06:30N 32°21' W 090°58'0 0.0
2018-Apr-18 06:00N 32°21' W 090°58'0 0.0
2018-Apr-18 05:30N 32°21' W 090°58'0 0.0
2018-Apr-18 05:00N 32°21' W 090°58'0 0.0
2018-Apr-18 04:30N 32°21' W 090°58'0 0.0
2018-Apr-18 04:00N 32°21' W 090°58'0 0.0
2018-Apr-18 03:30N 32°21' W 090°58'0 0.0
2018-Apr-18 03:00N 32°21' W 090°58'0 0.0
2018-Apr-18 02:30N 32°21' W 090°58'1 2.9
2018-Apr-18 02:00N 32°21' W 090°60'4 8.5
2018-Apr-18 01:30N 32°25' W 091°01'510.2
2018-Apr-18 01:00N 32°28' W 091°06'5 9.2
2018-Apr-18 00:29N 32°33' W 091°06'5 9.4
2018-Apr-18 00:00N 32°37' W 091°09'  
2018-Apr-09 01:27N 32°37' W 091°09'2 4.1
2018-Apr-09 00:59N 32°35' W 091°07'2 3.1
2018-Apr-09 00:20N 32°34' W 091°06'1 4.1
2018-Apr-08 23:59N 32°32' W 091°06'2 4.7
2018-Apr-08 23:31N 32°30' W 091°07'2 3.5
2018-Apr-08 23:00N 32°28' W 091°06'2 4.3
2018-Apr-08 22:31N 32°27' W 091°04'2 3.9
2018-Apr-08 22:01N 32°26' W 091°02'2 4.0
2018-Apr-08 21:31N 32°25' W 091°01'2 4.2
2018-Apr-08 21:00N 32°23' W 091°00'2 4.0
2018-Apr-08 20:31N 32°21' W 090°59'2 4.2
2018-Apr-08 20:01N 32°21' W 090°57'2 4.0
2018-Apr-08 19:30N 32°20' W 090°54'2 3.6
2018-Apr-08 19:01N 32°18' W 090°55'2 4.6
2018-Apr-08 18:30N 32°17' W 090°57'2 4.5
2018-Apr-08 18:01N 32°14' W 090°58'3 5.0
2018-Apr-08 17:31N 32°12' W 090°59'2 4.2
2018-Apr-08 17:00N 32°10' W 090°60'2 4.2
2018-Apr-08 16:31N 32°08' W 091°01'2 4.1
2018-Apr-08 16:00N 32°08' W 091°03'1 2.8
2018-Apr-08 15:31N 32°08' W 091°05'4 3.7
2018-Apr-08 14:26N 32°04' W 091°03'  

Dump ship's entire track history